createdAt,value
2017-10-02T00:05:58.000Z,58.928
2017-10-02T00:15:56.000Z,58.86
2017-10-02T00:25:56.000Z,58.774
2017-10-02T00:35:56.000Z,58.674
2017-10-02T00:45:56.000Z,58.594
2017-10-02T00:55:56.000Z,58.529
2017-10-02T01:05:56.000Z,58.483
2017-10-02T01:15:56.000Z,58.405
2017-10-02T01:25:56.000Z,58.337
2017-10-02T01:35:56.000Z,58.249
2017-10-02T01:45:56.000Z,58.182
2017-10-02T01:55:56.000Z,58.222
2017-10-02T02:05:56.000Z,58.198
2017-10-02T02:15:56.000Z,58.141
2017-10-02T02:25:56.000Z,58.085
2017-10-02T02:35:56.000Z,58.049
2017-10-02T02:45:56.000Z,58.038
2017-10-02T02:55:56.000Z,58.024
2017-10-02T03:05:56.000Z,58.127
2017-10-02T03:15:56.000Z,58.105
2017-10-02T03:25:56.000Z,58.156
2017-10-02T03:35:56.000Z,58.143
2017-10-02T03:45:56.000Z,58.142
2017-10-02T03:55:56.000Z,58.097
2017-10-02T04:05:56.000Z,58.117
2017-10-02T04:15:56.000Z,58.051
2017-10-02T04:25:56.000Z,58.125
2017-10-02T04:35:56.000Z,58.058
2017-10-02T04:45:56.000Z,58.108
2017-10-02T04:55:56.000Z,58.172
2017-10-02T05:05:56.000Z,58.224
2017-10-02T05:15:56.000Z,58.298
2017-10-02T05:25:57.000Z,58.278
2017-10-02T05:35:57.000Z,58.297
2017-10-02T05:45:57.000Z,58.318
2017-10-02T05:55:57.000Z,58.264
2017-10-02T06:05:57.000Z,58.36
2017-10-02T06:15:57.000Z,58.349
2017-10-02T06:25:57.000Z,58.468
2017-10-02T06:35:57.000Z,58.42
2017-10-02T06:45:57.000Z,58.636
2017-10-02T06:55:57.000Z,58.914
2017-10-02T07:05:57.000Z,58.974
2017-10-02T07:15:57.000Z,59.004
2017-10-02T07:25:57.000Z,58.94
2017-10-02T07:35:57.000Z,58.939
2017-10-02T07:45:57.000Z,58.866
2017-10-02T07:55:57.000Z,58.846
2017-10-02T08:05:57.000Z,58.857
2017-10-02T08:15:57.000Z,58.89
2017-10-02T08:25:57.000Z,58.828
2017-10-02T08:35:57.000Z,59.04
2017-10-02T08:45:57.000Z,58.567
2017-10-02T08:55:57.000Z,58.527
2017-10-02T09:05:57.000Z,58.486
2017-10-02T09:15:57.000Z,58.32
2017-10-02T09:25:57.000Z,58.533
2017-10-02T09:35:57.000Z,57.985
2017-10-02T09:45:57.000Z,57.999
2017-10-02T09:55:57.000Z,57.778
2017-10-02T10:05:57.000Z,57.658
2017-10-02T10:15:57.000Z,57.52
2017-10-02T10:25:57.000Z,57.026
2017-10-02T10:35:57.000Z,56.903
2017-10-02T10:45:57.000Z,56.333
2017-10-02T10:55:57.000Z,56.953
2017-10-02T11:05:57.000Z,56.953
2017-10-02T11:15:57.000Z,56.549
2017-10-02T11:25:57.000Z,56.858
2017-10-02T11:35:57.000Z,56.758
2017-10-02T11:45:57.000Z,56.872
2017-10-02T11:55:57.000Z,56.732
2017-10-02T12:05:57.000Z,56.595
2017-10-02T12:15:57.000Z,56.295
2017-10-02T12:25:57.000Z,56.202
2017-10-02T12:35:57.000Z,55.937
2017-10-02T12:45:58.000Z,55.548
2017-10-02T12:55:57.000Z,55.658
2017-10-02T13:06:00.000Z,55.683
2017-10-02T13:15:58.000Z,55.882
2017-10-02T13:25:58.000Z,55.979
2017-10-02T13:35:58.000Z,56.019
2017-10-02T13:45:58.000Z,55.975
2017-10-02T13:55:58.000Z,55.795
2017-10-02T14:05:58.000Z,55.975
2017-10-02T14:15:58.000Z,55.317
2017-10-02T14:25:58.000Z,55.819
2017-10-02T14:35:58.000Z,56.225
2017-10-02T14:45:58.000Z,56.32
2017-10-02T14:55:58.000Z,56.119
2017-10-02T15:05:58.000Z,56.117
2017-10-02T15:15:58.000Z,56.019
2017-10-02T15:25:58.000Z,56.471
2017-10-02T15:35:58.000Z,56.458
2017-10-02T15:45:58.000Z,56.364
2017-10-02T15:55:58.000Z,56.48
2017-10-02T16:05:58.000Z,56.425
2017-10-02T16:15:58.000Z,56.379
2017-10-02T16:25:58.000Z,56.333
2017-10-02T16:35:58.000Z,56.036
2017-10-02T16:45:58.000Z,56.418
2017-10-02T16:55:58.000Z,56.864
2017-10-02T17:05:58.000Z,56.837
2017-10-02T17:15:58.000Z,56.693
2017-10-02T17:25:58.000Z,56.61
2017-10-02T17:35:58.000Z,56.248
2017-10-02T17:45:58.000Z,57.441
2017-10-02T17:55:58.000Z,57.613
2017-10-02T18:05:58.000Z,57.718
2017-10-02T18:15:58.000Z,57.891
2017-10-02T18:25:58.000Z,57.954
2017-10-02T18:35:58.000Z,57.971
2017-10-02T18:45:58.000Z,57.966
2017-10-02T18:55:58.000Z,57.888
2017-10-02T19:05:58.000Z,57.928
2017-10-02T19:15:58.000Z,57.883
2017-10-02T19:25:58.000Z,57.88
2017-10-02T19:35:59.000Z,57.902
2017-10-02T19:45:58.000Z,58.041
2017-10-02T19:55:58.000Z,58.466
2017-10-02T20:15:58.000Z,58.562
2017-10-02T20:25:58.000Z,58.539
2017-10-02T20:35:58.000Z,58.527
2017-10-02T20:45:59.000Z,58.544
2017-10-02T20:55:59.000Z,58.703
2017-10-02T21:05:59.000Z,58.862
2017-10-02T21:15:59.000Z,59.03
2017-10-02T21:25:59.000Z,58.909
2017-10-02T21:35:59.000Z,58.766
2017-10-02T21:45:59.000Z,58.701
2017-10-02T21:55:59.000Z,58.475
2017-10-02T22:05:59.000Z,58.343
2017-10-02T22:15:59.000Z,58.448
2017-10-02T22:25:59.000Z,58.421
2017-10-02T22:36:01.000Z,58.44
2017-10-02T22:45:59.000Z,58.381
2017-10-02T22:55:59.000Z,58.292
2017-10-02T23:05:59.000Z,58.222
2017-10-02T23:15:59.000Z,58.218
2017-10-02T23:25:59.000Z,58.237
2017-10-02T23:35:59.000Z,58.125
2017-10-02T23:45:59.000Z,58.037
2017-10-02T23:55:59.000Z,58.021
